createdAt,value
2019-02-23T00:04:54.401Z,23
2019-02-23T00:09:56.851Z,22
2019-02-23T00:14:59.310Z,23
2019-02-23T00:41:18.408Z,20
2019-02-23T00:45:14.080Z,22
2019-02-23T00:50:16.531Z,24
2019-02-23T00:55:19.057Z,23
2019-02-23T01:00:21.434Z,22
2019-02-23T01:05:23.917Z,22
2019-02-23T01:10:26.391Z,22
2019-02-23T01:15:28.802Z,21
2019-02-23T01:20:31.332Z,23
2019-02-23T01:25:33.723Z,22
2019-02-23T01:30:36.168Z,20
2019-02-23T01:35:38.623Z,22
2019-02-23T01:40:41.109Z,21
2019-02-23T01:45:43.535Z,21
2019-02-23T01:50:46.001Z,18
2019-02-23T01:55:48.477Z,19
2019-02-23T02:00:50.978Z,20
2019-02-23T02:05:53.366Z,19
2019-02-23T02:10:55.865Z,19
2019-02-23T02:15:58.315Z,17
2019-02-23T02:21:00.732Z,17
2019-02-23T02:26:03.195Z,15
2019-02-23T02:31:05.704Z,14
2019-02-23T02:36:08.133Z,13
2019-02-23T02:41:10.558Z,13
2019-02-23T02:46:13.029Z,10
2019-02-23T02:51:15.471Z,11
2019-02-23T02:56:17.952Z,9
2019-02-23T03:01:20.403Z,10
2019-02-23T03:06:22.860Z,11
2019-02-23T03:11:25.299Z,9
2019-02-23T03:16:27.839Z,10
2019-02-23T03:21:30.209Z,13
2019-02-23T03:26:32.717Z,10
2019-02-23T03:31:35.141Z,12
2019-02-23T03:36:37.598Z,7
2019-02-23T03:41:40.060Z,9
2019-02-23T03:46:42.491Z,8
2019-02-23T03:51:45.005Z,8
2019-02-23T03:56:47.480Z,6
2019-02-23T04:01:49.881Z,8
2019-02-23T04:06:52.318Z,7
2019-02-23T04:11:54.869Z,8
2019-02-23T04:16:57.306Z,6
2019-02-23T04:21:59.701Z,7
2019-02-23T04:27:07.462Z,7
2019-02-23T04:32:04.750Z,7
2019-02-23T04:37:07.083Z,7
2019-02-23T04:42:09.825Z,7
2019-02-23T04:47:12.032Z,6
2019-02-23T04:52:14.441Z,7
2019-02-23T04:57:16.894Z,6
2019-02-23T05:02:19.384Z,7
2019-02-23T05:07:21.877Z,8
2019-02-23T05:12:24.278Z,8
2019-02-23T05:37:36.569Z,6
2019-02-23T05:42:39.019Z,8
2019-02-23T05:47:41.526Z,6
2019-02-23T05:52:44.030Z,5
2019-02-23T05:57:46.416Z,7
2019-02-23T06:02:48.840Z,5
2019-02-23T06:07:51.380Z,6
2019-02-23T06:12:53.751Z,6
2019-02-23T06:17:56.225Z,5
2019-02-23T06:22:58.710Z,4
2019-02-23T06:28:01.161Z,4
2019-02-23T06:33:03.660Z,4
2019-02-23T06:38:06.082Z,4
2019-02-23T06:43:08.491Z,4
2019-02-23T06:48:10.950Z,5
2019-02-23T06:53:13.397Z,5
2019-02-23T06:58:15.862Z,5
2019-02-23T07:03:18.329Z,5
2019-02-23T07:08:20.793Z,3
2019-02-23T07:13:23.240Z,5
2019-02-23T07:18:25.690Z,4
2019-02-23T07:23:28.184Z,4
2019-02-23T07:28:30.598Z,5
2019-02-23T07:33:33.410Z,5
2019-02-23T07:38:35.661Z,5
2019-02-23T07:43:37.957Z,5
2019-02-23T07:48:40.467Z,6
2019-02-23T07:53:42.886Z,6
2019-02-23T07:58:45.339Z,6
2019-02-23T08:03:47.804Z,6
2019-02-23T08:08:50.327Z,5
2019-02-23T08:13:52.735Z,5
2019-02-23T08:18:55.318Z,6
2019-02-23T08:23:57.646Z,5
2019-02-23T08:29:00.101Z,6
2019-02-23T08:34:02.605Z,6
2019-02-23T08:39:05.022Z,6
2019-02-23T08:44:07.537Z,6
2019-02-23T08:49:09.956Z,7
2019-02-23T08:54:12.421Z,5
2019-02-23T08:59:14.864Z,5
2019-02-23T09:04:17.317Z,5
2019-02-23T09:09:19.812Z,5
2019-02-23T09:14:22.236Z,5
2019-02-23T09:19:24.677Z,6
2019-02-23T09:24:27.187Z,6
2019-02-23T09:29:29.591Z,5
2019-02-23T09:34:32.051Z,5
2019-02-23T09:39:34.507Z,10
2019-02-23T09:44:36.979Z,7
2019-02-23T09:49:39.622Z,5
2019-02-23T09:54:41.896Z,5
2019-02-23T09:59:44.343Z,6
2019-02-23T10:04:46.852Z,5
2019-02-23T10:09:49.287Z,4
2019-02-23T10:14:51.781Z,5
2019-02-23T10:19:54.176Z,4
2019-02-23T10:24:56.670Z,4
2019-02-23T10:29:59.095Z,3
2019-02-23T10:40:04.049Z,4
2019-02-23T10:45:06.511Z,2
2019-02-23T10:50:08.972Z,3
2019-02-23T10:55:11.451Z,3
2019-02-23T11:00:13.856Z,3
2019-02-23T11:05:16.358Z,3
2019-02-23T11:10:18.794Z,3
2019-02-23T11:15:21.231Z,4
2019-02-23T11:20:23.696Z,3
2019-02-23T11:25:26.163Z,3
2019-02-23T11:30:28.587Z,3
2019-02-23T11:35:31.044Z,3
2019-02-23T11:40:33.508Z,3
2019-02-23T11:45:36.033Z,2
2019-02-23T11:50:38.426Z,2
2019-02-23T11:55:40.920Z,2
2019-02-23T12:00:43.335Z,3
2019-02-23T12:05:45.861Z,2
2019-02-23T12:10:48.248Z,3
2019-02-23T12:15:50.745Z,2
2019-02-23T12:20:53.180Z,2
2019-02-23T12:25:55.622Z,3
2019-02-23T12:30:58.096Z,2
2019-02-23T12:36:00.570Z,2
2019-02-23T12:41:03.005Z,2
2019-02-23T12:46:05.469Z,2
2019-02-23T12:51:07.944Z,2
2019-02-23T12:56:10.380Z,2
2019-02-23T13:01:12.931Z,2
2019-02-23T13:06:15.280Z,3
2019-02-23T13:11:17.763Z,3
2019-02-23T13:16:20.201Z,2
2019-02-23T13:21:22.750Z,2
2019-02-23T13:26:25.135Z,3
2019-02-23T13:31:27.567Z,2
2019-02-23T13:36:30.062Z,2
2019-02-23T13:41:32.556Z,2
2019-02-23T13:46:34.974Z,2
2019-02-23T13:51:37.413Z,2
2019-02-23T13:56:39.873Z,2
2019-02-23T14:01:42.331Z,2
2019-02-23T14:06:44.901Z,2
2019-02-23T14:11:47.231Z,2
2019-02-23T14:21:52.155Z,3
2019-02-23T14:26:54.620Z,5
2019-02-23T14:31:57.048Z,7
2019-02-23T14:36:59.513Z,6
2019-02-23T14:42:02.002Z,2
2019-02-23T14:47:04.422Z,6
2019-02-23T14:52:06.906Z,4
2019-02-23T14:57:09.342Z,4
2019-02-23T15:02:11.859Z,3
2019-02-23T15:07:14.370Z,2
2019-02-23T15:12:16.717Z,3
2019-02-23T15:17:19.167Z,2
2019-02-23T15:22:21.651Z,3
2019-02-23T15:27:24.137Z,3
2019-02-23T15:32:26.561Z,2
2019-02-23T15:37:29.012Z,3
2019-02-23T15:42:31.545Z,3
2019-02-23T15:47:33.936Z,3
2019-02-23T15:52:36.404Z,3
2019-02-23T15:57:38.844Z,5
2019-02-23T16:02:41.311Z,4
2019-02-23T16:07:43.853Z,5
2019-02-23T16:12:46.297Z,4
2019-02-23T16:17:48.693Z,5
2019-02-23T16:22:51.156Z,5
2019-02-23T16:27:53.642Z,6
2019-02-23T16:32:56.085Z,8
2019-02-23T16:37:58.556Z,5
2019-02-23T16:43:01.055Z,5
2019-02-23T16:48:03.554Z,6
2019-02-23T16:53:05.950Z,6
2019-02-23T16:58:08.424Z,17
2019-02-23T17:03:10.891Z,10
2019-02-23T17:08:13.331Z,7
2019-02-23T17:13:15.895Z,10
2019-02-23T17:18:18.270Z,6
2019-02-23T17:23:20.738Z,11
2019-02-23T17:28:23.175Z,13
2019-02-23T17:33:27.945Z,13
2019-02-23T17:38:28.098Z,20
2019-02-23T17:43:30.563Z,9
2019-02-23T17:53:35.473Z,22
2019-02-23T17:58:37.939Z,18
2019-02-23T18:03:40.422Z,24
2019-02-23T18:08:42.861Z,47
2019-02-23T18:13:45.325Z,21
2019-02-23T18:18:47.758Z,15
2019-02-23T18:23:50.227Z,19
2019-02-23T18:28:52.682Z,9
2019-02-23T18:33:55.320Z,14
2019-02-23T18:38:57.599Z,16
2019-02-23T18:44:00.068Z,16
2019-02-23T18:49:02.507Z,8
2019-02-23T18:54:04.960Z,9
2019-02-23T18:59:07.430Z,11
2019-02-23T19:04:09.886Z,9
2019-02-23T19:09:12.340Z,9
2019-02-23T19:14:14.823Z,11
2019-02-23T19:19:17.313Z,10
2019-02-23T19:24:19.707Z,10
2019-02-23T19:29:22.290Z,10
2019-02-23T19:34:24.613Z,9
2019-02-23T19:39:27.069Z,9
2019-02-23T19:44:29.540Z,10
2019-02-23T19:49:31.987Z,11
2019-02-23T19:54:34.444Z,11
2019-02-23T19:59:36.905Z,11
2019-02-23T20:04:39.352Z,11
2019-02-23T20:09:41.819Z,14
2019-02-23T20:14:44.265Z,17
2019-02-23T20:19:46.723Z,13
2019-02-23T20:24:49.185Z,12
2019-02-23T20:29:51.631Z,13
2019-02-23T20:34:54.201Z,13
2019-02-23T20:39:56.579Z,12
2019-02-23T20:44:59.005Z,14
2019-02-23T20:50:01.713Z,12
2019-02-23T20:55:03.916Z,11
2019-02-23T21:00:11.375Z,12
2019-02-23T21:05:08.846Z,10
2019-02-23T21:10:11.290Z,10
2019-02-23T21:15:13.743Z,11
2019-02-23T21:20:16.267Z,9
2019-02-23T21:25:18.654Z,10
2019-02-23T21:30:21.121Z,8
2019-02-23T21:35:23.602Z,10
2019-02-23T21:40:26.072Z,11
2019-02-23T21:45:28.479Z,14
2019-02-23T21:50:30.932Z,12
2019-02-23T21:55:33.399Z,11
2019-02-23T22:00:35.876Z,11
2019-02-23T22:05:38.323Z,10
2019-02-23T22:10:40.783Z,9
2019-02-23T22:15:43.235Z,10
2019-02-23T22:20:45.681Z,11
2019-02-23T22:25:48.147Z,9
2019-02-23T22:30:50.606Z,9
2019-02-23T22:35:53.081Z,11
2019-02-23T22:40:55.510Z,10
2019-02-23T22:45:57.980Z,11
2019-02-23T22:51:00.512Z,10
2019-02-23T22:56:02.887Z,11
2019-02-23T23:01:05.367Z,12
2019-02-23T23:06:07.793Z,27
2019-02-23T23:11:10.250Z,12
2019-02-23T23:16:12.709Z,11
2019-02-23T23:21:15.172Z,13
2019-02-23T23:26:17.676Z,12
2019-02-23T23:31:20.071Z,14
2019-02-23T23:36:22.623Z,12
2019-02-23T23:41:24.997Z,12
2019-02-23T23:46:27.456Z,11
2019-02-23T23:51:30.110Z,12
2019-02-23T23:56:32.380Z,14
